Weather forecast for Bulen (Булен)

Russia, 519 m
N52.847, E104.807


Sounding

Red line — air temperature ˚C.
Blue line — thermal bubble temperature ˚C.
Green line — dew point temperature ˚C.
Wind speed is in meters per second.

Table forecast

GFS 0.25˚ model

temp. wind gust humid. clouds prec. press. hpbl
Mon18 00:00 -22 63.0 ene 3 5 75 81 0.0 1039 109
03:00 -22 63.0 ene 3 5 76 48 0.0 1038 119
06:00 -23 60.0 ene 3 6 75 0 0.0 1036 133
09:00 -23 59.0 ene 3 5 75 0 0.0 1036 131
12:00 -20 58.0 ene 3 5 66 0 0.0 1033 177
15:00 -17 56.0 ne 4 6 63 10 0.0 1030 203
18:00 -18 55.0 ne 4 7 69 23 0.0 1029 119
21:00 -19 57.0 ene 4 6 71 12 0.0 1029 100
 
Tue19 00:00 -19 57.0 ene 4 7 77 0 0.0 1027 111
03:00 -19 57.0 ene 4 7 77 32 0.0 1026 124
06:00 -18 56.0 ne 4 7 79 98 0.0 1024 146
09:00 -18 56.0 ne 4 6 82 99 0.0 1024 133
12:00 -16 57.0 ene 3 4 83 86 0.0 1024 139
15:00 -13 58.0 ene 3 4 77 93 0.0 1023 207
18:00 -14 56.0 ne 3 3 86 77 0.0 1024 35
21:00 -15 76.0 ene 2 2 86 41 0.0 1025 20
 
Wed20 00:00 -15 69.0 ene 2 3 86 47 0.0 1024 28
03:00 -15 70.0 ene 3 3 86 74 0.0 1023 56
06:00 -15 63.0 ene 3 4 87 96 0.0 1021 76
09:00 -13 67.0 ene 4 6 82 98 0.0 1019 125
12:00 -11 55.0 ne 3 4 76 100 0.0 1016 130
15:00 -8 75.0 ene 2 5 75 100 0.0 1014 205
18:00 -11 104.0 ese 3 3 82 100 0.0 1015 59
21:00 -11 106.0 ese 0 1 86 100 0.0 1016 21
 
Thu21 00:00 -11 294.0 wnw 1 1 95 100 0.1 1017 21
03:00 -11 282.0 wnw 2 4 96 100 0.3 1019 118
06:00 -10 321.0 nw 5 9 94 100 0.8 1021 528
09:00 -12 311.0 nw 5 9 86 100 1.6 1023 567
12:00 -13 306.0 nw 4 7 78 100 0.0 1026 776
15:00 -13 303.0 wnw 5 7 77 100 0.1 1027 798
18:00 -15 298.0 wnw 4 7 84 100 0.0 1029 442
21:00 -17 294.0 wnw 3 6 89 100 0.0 1031 316
 
Fri22 00:00 -19 291.0 wnw 3 4 94 72 0.0 1033 82
03:00 -20 269.0 w 3 3 96 38 0.0 1034 66
06:00 -21 272.0 w 2 2 96 20 0.0 1034 23
09:00 -21 261.0 w 2 2 94 10 0.0 1035 21
12:00 -18 246.0 wsw 1 2 84 0 0.0 1034 155
15:00 -16 208.0 ssw 0 1 75 10 0.0 1032 205
18:00 -17 76.0 ene 2 2 84 100 0.0 1032 28
21:00 -17 69.0 ene 2 2 82 100 0.0 1032 39
 

0.018 s